West Augusta, Virginia
Current Conditions -  °F | °C
As of 10:35 PM on Monday 20 Oct 2014 (Local Time) from KVBW Reporting Station
Overcast Overcast  
Wind Chill: 56°   Ceiling: 9000
Heat Index: 56°   Visibility: 10mi
Dew Point: 48°   Wind: 5mph
Humidity: 76%   Direction: 170°S
Pressure: 29.94"   Gusts: NA
Location:  38.27°N, 79.32°W
Report Text: KVBW 210235Z AUTO 17004KT 10SM OVC090 13/09 A2994 RMK AO2 T01310089
Loading
Personal Weather Stations






























Interactive Weather Map
Tropical Storm Tracking
New forecast layout! Learn more

10-Day Weather Forecast

Advertisements
Track Severe Weather on mobile